»·PEaware :: VRD180 KGJT-KFLG

VRD180 :: KGJT-KFLG

FLIGHT INFORMATION

Flight Status: Arrived
Operator:
Virgin America
More flights by this operator :: More flights under this callsign
Pilot: Etienne B. (28927)
Aircraft: AIRBUS A320
(A320)
More flights by this aircraft type
Origin: KGJT Grand Junction Regl
United States
Destination: KFLG Flagstaff Pulliam
United States
More flights between these airports :: More routes between these airports
Route: +RHONE2 JNC TBC FLG
File this flight plan on PilotEdge
Remarks: RMK / SIMBRIEF
Altitude:
(Current/Filed)
32,000ft
Speed:
(Current/Filed)
439kts
Departed: 08-May-20 03:56 PM
Arrived: 08-May-20 04:48 PM
Distance/Time
Traveled:
282nm/0:52
Distance/Time
To Go:
Arrived

Flight Plot

Page will automatically refresh every two minutes.

Flight plan parsing failed; only flown route is shown


Map Options




Map Legend


Flown Route
Filed Route
Departure Airport
Arrival Airport
Navaid (VOR, NDB)
Fix

Horizontal Profiles

Position Reports

Time Latitude Longitude Heading Altitude Ground
Speed
08-May-20 15:28 39.123332 -108.528993 217 4836ft 0kts
08-May-20 15:29 39.123332 -108.528993 217 4836ft 0kts
08-May-20 15:30 39.123332 -108.528993 217 4836ft 0kts
08-May-20 15:31 39.123332 -108.528993 217 4836ft 0kts
08-May-20 15:32 39.123332 -108.528993 217 4836ft 0kts
08-May-20 15:33 39.123332 -108.528993 217 4836ft 0kts
08-May-20 15:34 39.123332 -108.528993 217 4836ft 0kts
08-May-20 15:35 39.123332 -108.528993 217 4836ft 0kts
08-May-20 15:36 39.123332 -108.528993 217 4836ft 0kts
08-May-20 15:37 39.123332 -108.528993 217 4836ft 0kts
08-May-20 15:38 39.123332 -108.528993 217 4836ft 0kts
08-May-20 15:39 39.123332 -108.528993 217 4836ft 0kts
08-May-20 15:40 39.123332 -108.528993 217 4836ft 0kts
08-May-20 15:41 39.123332 -108.528993 217 4836ft 0kts
08-May-20 15:42 39.123332 -108.528993 217 4836ft 0kts
08-May-20 15:43 39.123332 -108.528993 217 4836ft 0kts
08-May-20 15:44 39.123861 -108.528868 160 4839ft 2kts
08-May-20 15:45 39.124173 -108.529177 122 4839ft 0kts
08-May-20 15:46 39.124173 -108.529176 122 4839ft 0kts
08-May-20 15:47 39.124051 -108.528930 121 4839ft 4kts
08-May-20 15:48 39.124135 -108.527900 45 4843ft 0kts
08-May-20 15:50 39.123428 -108.525738 124 4849ft 11kts
08-May-20 15:51 39.121697 -108.522570 124 4850ft 18kts
08-May-20 15:52 39.118515 -108.516778 126 4852ft 13kts
08-May-20 15:53 39.118476 -108.516710 126 4852ft 0kts
08-May-20 15:54 39.118052 -108.515976 123 4852ft 9kts
08-May-20 15:55 39.119007 -108.515229 303 4856ft 12kts
08-May-20 15:56 39.138102 -108.550796 302 5759ft 177kts
08-May-20 15:57 39.164979 -108.614702 276 7766ft 237kts
08-May-20 15:58 39.129368 -108.694052 228 10046ft 287kts
08-May-20 15:59 39.071438 -108.775514 229 11748ft 341kts
08-May-20 16:00 38.990091 -108.854176 215 13147ft 383kts
08-May-20 16:01 38.901365 -108.932310 216 15257ft 392kts
08-May-20 16:02 38.810239 -109.012401 217 17151ft 402kts
08-May-20 16:03 38.717184 -109.093938 216 18872ft 411kts
08-May-20 16:04 38.621647 -109.177379 216 20429ft 420kts
08-May-20 16:05 38.524325 -109.262096 216 21853ft 428kts
08-May-20 16:05 38.441550 -109.333929 217 22949ft 435kts
08-May-20 16:07 38.324069 -109.435534 217 24340ft 443kts
08-May-20 16:08 38.221289 -109.524093 217 25420ft 449kts
08-May-20 16:08 38.134732 -109.598435 217 26255ft 454kts
08-May-20 16:09 38.029529 -109.688499 217 27243ft 459kts
08-May-20 16:11 37.906725 -109.793205 217 28780ft 454kts
08-May-20 16:12 37.802315 -109.881915 218 30020ft 451kts
08-May-20 16:12 37.715773 -109.955219 219 30964ft 450kts
08-May-20 16:13 37.612642 -110.042282 219 32131ft 446kts
08-May-20 16:14 37.509741 -110.128878 220 32222ft 444kts
08-May-20 16:15 37.407045 -110.215018 219 32224ft 445kts
08-May-20 16:16 37.303830 -110.301282 220 32221ft 445kts
08-May-20 16:17 37.200974 -110.386964 219 32222ft 445kts
08-May-20 16:18 37.097892 -110.472672 220 32179ft 445kts
08-May-20 16:19 36.995104 -110.557848 218 32141ft 442kts
08-May-20 16:20 36.893225 -110.641772 218 32114ft 438kts
08-May-20 16:21 36.791610 -110.725291 217 32082ft 438kts
08-May-20 16:22 36.690010 -110.808536 217 32086ft 438kts
08-May-20 16:23 36.588204 -110.891686 217 32094ft 438kts
08-May-20 16:24 36.486361 -110.974585 217 31071ft 439kts
08-May-20 16:25 36.382400 -111.058992 217 27687ft 455kts
08-May-20 16:26 36.275542 -111.145411 216 24475ft 461kts
08-May-20 16:27 36.168853 -111.231391 216 24095ft 455kts
08-May-20 16:28 36.056443 -111.296994 202 22030ft 447kts
08-May-20 16:29 35.940987 -111.345229 201 19602ft 433kts
08-May-20 16:30 35.828928 -111.392078 201 17144ft 419kts
08-May-20 16:31 35.720296 -111.437378 201 15077ft 412kts
08-May-20 16:32 35.612729 -111.482078 201 15027ft 380kts
08-May-20 16:33 35.524688 -111.518420 202 15032ft 318kts
08-May-20 16:34 35.441160 -111.553124 202 15027ft 318kts
08-May-20 16:35 35.356669 -111.584540 182 14914ft 321kts
08-May-20 16:36 35.283479 -111.542568 151 14936ft 281kts
08-May-20 16:37 35.215318 -111.539517 211 14215ft 242kts
08-May-20 16:38 35.156876 -111.576203 195 12685ft 237kts
08-May-20 16:39 35.118304 -111.525429 69 12033ft 249kts
08-May-20 16:40 35.162317 -111.465063 41 11126ft 238kts
08-May-20 16:41 35.215848 -111.434729 327 10321ft 202kts
08-May-20 16:42 35.244905 -111.477399 288 10035ft 160kts
08-May-20 16:43 35.239396 -111.532011 250 9972ft 163kts
08-May-20 16:44 35.217626 -111.581031 235 8922ft 166kts
08-May-20 16:45 35.185455 -111.620820 225 8155ft 158kts
08-May-20 16:46 35.152424 -111.656255 224 7184ft 147kts
08-May-20 16:47 35.137031 -111.673329 298 7020ft 0kts
08-May-20 16:48 35.137152 -111.673574 306 7020ft 5kts
08-May-20 16:49 35.138414 -111.674296 349 7020ft 0kts

Navigation Log

Ident Type
Flight plan parsing failed, navigation log unavailable